Time;durP1;ratioP1;P1;durP2;ratioP2;P2;SDS_P1;SDS_P2;PMS_P1;PMS_P2;Temp;Humidity;BMP_temperature;BMP_pressure;BME280_temperature;BME280_humidity;BME280_pressure;Samples;Min_cycle;Max_cycle;Signal;HPM_P1;HPM_P2
2023/01/28 00:01:50;;;;;;;4.17;2.67;;;1.90;99.90;1.60;101382.00;;;;4780960;29;108710;-67
2023/01/28 00:04:15;;;;;;;4.13;2.40;;;1.90;99.90;1.60;101388.00;;;;4777623;29;123439;-68
2023/01/28 00:06:41;;;;;;;3.57;2.60;;;2.00;99.90;1.60;101393.00;;;;4782477;29;122045;-69
2023/01/28 00:09:07;;;;;;;4.80;2.37;;;1.90;99.90;1.60;101394.00;;;;4781014;29;112003;-67
2023/01/28 00:11:32;;;;;;;2.23;2.00;;;1.90;99.90;1.60;101386.00;;;;4779495;29;93015;-69
2023/01/28 00:13:59;;;;;;;2.83;2.17;;;2.00;99.90;1.60;101387.00;;;;4778501;29;123562;-68
2023/01/28 00:16:29;;;;;;;5.77;2.47;;;1.90;99.90;1.60;101396.00;;;;4778014;29;115659;-68
2023/01/28 00:18:54;;;;;;;2.33;2.10;;;1.80;99.90;1.50;101392.00;;;;4777056;29;93153;-67
2023/01/28 00:21:20;;;;;;;3.33;2.27;;;1.80;99.90;1.50;101399.00;;;;4776861;29;93053;-67
2023/01/28 00:23:52;;;;;;;2.97;2.03;;;1.80;99.90;1.50;101396.00;;;;4775911;29;94216;-68
2023/01/28 00:26:17;;;;;;;3.17;2.23;;;1.70;99.90;1.50;101402.00;;;;4779868;29;92991;-67
2023/01/28 00:28:43;;;;;;;4.20;2.60;;;1.80;99.90;1.50;101396.00;;;;4779922;29;110841;-67
2023/01/28 00:31:25;;;;;;;1.77;1.67;;;1.80;99.90;1.50;101400.00;;;;4781086;29;95365;-68
2023/01/28 00:33:53;;;;;;;4.27;2.20;;;1.80;99.90;1.50;101401.00;;;;4782676;29;93014;-68
2023/01/28 00:36:20;;;;;;;2.73;2.47;;;1.80;99.90;1.40;101400.00;;;;4782066;29;93676;-68
2023/01/28 00:38:55;;;;;;;4.37;2.80;;;1.70;99.90;1.40;101398.00;;;;4779324;29;94012;-69
2023/01/28 00:41:23;;;;;;;6.83;2.97;;;1.70;99.90;1.40;101399.00;;;;4781831;29;93220;-70
2023/01/28 00:43:50;;;;;;;5.47;3.47;;;1.20;99.90;1.40;101396.00;;;;4793466;29;92887;-69
2023/01/28 00:46:17;;;;;;;17.57;4.70;;;1.80;99.90;1.40;101400.00;;;;4775108;29;92904;-68
2023/01/28 00:48:43;;;;;;;2.97;2.67;;;1.70;99.90;1.40;101397.00;;;;4779659;29;93072;-67
2023/01/28 00:51:11;;;;;;;5.13;2.73;;;1.60;99.90;1.30;101407.00;;;;4779541;29;93159;-68
2023/01/28 00:53:37;;;;;;;5.47;2.67;;;1.60;99.90;1.30;101395.00;;;;4778366;29;115899;-67
2023/01/28 00:56:05;;;;;;;5.23;2.43;;;1.60;99.90;1.30;101395.00;;;;4781263;29;93855;-68
2023/01/28 00:58:32;;;;;;;4.03;1.43;;;1.60;99.90;1.30;101396.00;;;;4778912;29;92777;-68
2023/01/28 01:01:14;;;;;;;6.13;2.07;;;1.50;99.90;1.20;101398.00;;;;4781961;29;93141;-68
2023/01/28 01:03:40;;;;;;;1.93;1.80;;;1.60;99.90;1.20;101402.00;;;;4779060;29;112932;-68
2023/01/28 01:06:07;;;;;;;1.90;1.70;;;1.50;99.90;1.20;101398.00;;;;4793033;29;93513;-68
2023/01/28 01:08:38;;;;;;;2.77;1.63;;;1.50;99.90;1.20;101407.00;;;;4779669;29;93086;-69
2023/01/28 01:11:06;;;;;;;3.10;1.97;;;1.50;99.90;1.10;101407.00;;;;4781668;29;92897;-67
2023/01/28 01:13:35;;;;;;;3.07;1.40;;;1.40;99.90;1.10;101418.00;;;;4780012;29;107783;-69
2023/01/28 01:16:24;;;;;;;6.00;1.57;;;1.40;99.90;1.00;101415.00;;;;4780238;29;93465;-69
2023/01/28 01:18:51;;;;;;;2.40;1.90;;;1.40;99.90;1.00;101423.00;;;;4778228;29;92853;-69
2023/01/28 01:21:20;;;;;;;2.80;1.50;;;2.40;99.90;1.00;101423.00;;;;4782477;29;92333;-69
2023/01/28 01:23:47;;;;;;;3.50;1.70;;;1.40;99.90;0.90;101412.00;;;;4779582;29;94529;-69
2023/01/28 01:26:13;;;;;;;2.37;1.53;;;1.30;99.90;0.80;101418.00;;;;4779531;29;93641;-68
2023/01/28 01:28:39;;;;;;;1.20;1.03;;;1.30;99.90;0.70;101425.00;;;;4779541;29;95444;-70
2023/01/28 01:31:09;;;;;;;5.33;1.60;;;1.10;99.90;0.60;101426.00;;;;4781844;29;93041;-69
2023/01/28 01:33:35;;;;;;;2.00;1.47;;;1.00;99.90;0.50;101415.00;;;;4775918;29;98873;-69
2023/01/28 01:36:01;;;;;;;3.53;2.23;;;0.90;99.90;0.40;101418.00;;;;4776877;29;122426;-68
2023/01/28 01:38:27;;;;;;;4.47;1.90;;;1.10;99.90;0.40;101414.00;;;;4775607;29;99445;-68
2023/01/28 01:41:00;;;;;;;1.83;1.63;;;0.80;99.90;0.30;101425.00;;;;4779565;29;92979;-69
2023/01/28 01:43:49;;;;;;;4.30;2.03;;;0.70;99.90;0.10;101409.00;;;;4778784;29;122859;-68
2023/01/28 01:46:21;;;;;;;3.43;2.20;;;1.10;99.90;0.10;101427.00;;;;4795403;29;92244;-68
2023/01/28 01:48:48;;;;;;;4.90;2.03;;;0.40;99.90;0.00;101411.00;;;;4781154;29;94170;-68
2023/01/28 01:51:21;;;;;;;3.80;2.10;;;0.40;99.90;-0.10;101420.00;;;;4793899;29;92923;-69
2023/01/28 01:53:51;;;;;;;1.83;1.73;;;0.30;99.90;-0.10;101417.00;;;;4791238;29;110743;-68
2023/01/28 01:56:21;;;;;;;2.20;1.90;;;0.10;99.90;-0.20;101426.00;;;;4776990;29;93173;-69
2023/01/28 01:58:49;;;;;;;2.53;2.20;;;0.30;99.90;-0.20;101428.00;;;;4793243;29;92838;-69
2023/01/28 02:01:17;;;;;;;2.63;2.10;;;0.20;99.90;-0.20;101433.00;;;;4790053;29;92942;-68
2023/01/28 02:03:59;;;;;;;3.87;2.37;;;0.10;99.90;-0.30;101422.00;;;;4779346;29;94344;-68
2023/01/28 02:06:26;;;;;;;3.63;2.13;;;0.10;99.90;-0.20;101419.00;;;;4777660;29;114695;-69
2023/01/28 02:08:55;;;;;;;5.93;2.80;;;0.20;99.90;-0.30;101425.00;;;;4776567;29;102974;-69
2023/01/28 02:11:23;;;;;;;2.83;2.40;;;0.10;99.90;-0.30;101419.00;;;;4773498;29;93288;-69
2023/01/28 02:13:52;;;;;;;8.73;2.27;;;0.10;99.90;-0.30;101416.00;;;;4775503;29;93328;-70
2023/01/28 02:16:18;;;;;;;5.07;3.10;;;0.10;99.90;-0.30;101430.00;;;;4779326;29;114072;-69
2023/01/28 02:18:44;;;;;;;4.67;2.40;;;0.10;99.90;-0.30;101428.00;;;;4774514;29;110052;-69
2023/01/28 02:21:42;;;;;;;3.23;2.30;;;0.00;99.90;-0.40;101426.00;;;;4779282;29;108208;-68
2023/01/28 02:24:43;;;;;;;5.17;2.23;;;0.10;99.90;-0.40;101428.00;;;;4779936;29;103447;-68
2023/01/28 02:27:30;;;;;;;3.57;2.27;;;0.00;99.90;-0.30;101434.00;;;;4791879;29;115903;-70
2023/01/28 02:30:20;;;;;;;2.27;2.07;;;0.10;99.90;-0.30;101433.00;;;;4793767;29;93089;-71
2023/01/28 02:32:55;;;;;;;3.63;2.20;;;0.00;99.90;-0.30;101434.00;;;;4779670;29;92985;-70
2023/01/28 02:35:48;;;;;;;4.87;2.80;;;0.10;99.90;-0.30;101442.00;;;;4776137;29;114954;-70
2023/01/28 02:38:28;;;;;;;5.60;2.77;;;0.10;99.90;-0.30;101427.00;;;;4781657;29;92218;-69
2023/01/28 02:41:05;;;;;;;4.63;2.03;;;0.10;99.90;-0.30;101434.00;;;;4780289;29;99619;-70
2023/01/28 02:43:44;;;;;;;3.43;2.10;;;0.10;99.90;-0.30;101442.00;;;;4781368;29;92940;-68
2023/01/28 02:49:30;;;;;;;3.30;2.50;;;0.10;99.90;-0.30;101430.00;;;;4779510;29;93378;-67
2023/01/28 02:52:17;;;;;;;2.67;2.27;;;0.10;99.90;-0.30;101439.00;;;;4795356;29;94523;-69
2023/01/28 02:55:07;;;;;;;6.00;2.57;;;1.20;99.90;-0.20;101449.00;;;;4781974;29;92953;-69
2023/01/28 02:57:52;;;;;;;3.40;2.20;;;0.10;99.90;-0.20;101444.00;;;;4792873;29;110273;-67
2023/01/28 03:00:28;;;;;;;3.37;2.53;;;0.10;99.90;-0.20;101445.00;;;;4776469;29;114097;-69
2023/01/28 03:03:32;;;;;;;1.67;1.53;;;0.20;99.90;-0.20;101440.00;;;;4780745;29;103374;-69
2023/01/28 03:06:08;;;;;;;4.03;3.13;;;0.20;99.90;-0.10;101441.00;;;;4782752;29;102611;-69
2023/01/28 03:37:25;;;;;;;3.70;2.37;;;0.20;99.90;-0.30;101460.00;;;;4779178;29;93214;-68
2023/01/28 03:39:51;;;;;;;3.37;2.67;;;0.20;99.90;-0.30;101461.00;;;;4781074;29;92885;-70
2023/01/28 03:42:17;;;;;;;5.53;2.77;;;0.10;99.90;-0.30;101453.00;;;;4780510;29;123153;-67
2023/01/28 03:44:52;;;;;;;3.83;2.83;;;0.20;99.90;-0.30;101472.00;;;;4782539;29;94170;-68
2023/01/28 03:47:25;;;;;;;6.07;2.73;;;0.10;99.90;-0.30;101462.00;;;;4778797;29;93160;-69
2023/01/28 03:49:54;;;;;;;5.20;3.13;;;0.10;99.90;-0.30;101458.00;;;;4780086;29;93187;-69
2023/01/28 03:52:27;;;;;;;5.43;2.23;;;0.10;99.90;-0.30;101462.00;;;;4782299;29;110707;-68
2023/01/28 03:54:53;;;;;;;4.07;2.67;;;0.10;99.90;-0.20;101463.00;;;;4781688;29;93560;-69
2023/01/28 03:57:22;;;;;;;4.93;2.60;;;0.10;99.90;-0.20;101467.00;;;;4782329;29;96027;-69
2023/01/28 03:59:51;;;;;;;4.50;2.90;;;0.10;99.90;-0.20;101468.00;;;;4781489;29;92185;-68
2023/01/28 04:02:19;;;;;;;4.53;3.27;;;0.10;99.90;-0.20;101477.00;;;;4780613;29;94159;-70
2023/01/28 04:04:45;;;;;;;3.83;2.93;;;0.10;99.90;-0.30;101472.00;;;;4778376;29;93484;-68
2023/01/28 04:07:15;;;;;;;3.87;3.10;;;0.10;99.90;-0.30;101478.00;;;;4775238;29;110925;-68
2023/01/28 04:09:42;;;;;;;3.57;2.23;;;0.00;99.90;-0.40;101481.00;;;;4774507;29;93050;-69
2023/01/28 04:12:09;;;;;;;3.53;2.57;;;0.00;99.90;-0.40;101487.00;;;;4781257;29;122247;-69
2023/01/28 04:14:35;;;;;;;5.03;3.07;;;1.00;99.90;-0.40;101483.00;;;;4780483;29;93501;-69
2023/01/28 04:17:00;;;;;;;7.37;2.30;;;0.00;99.90;-0.40;101485.00;;;;4776582;29;110703;-69
2023/01/28 04:19:27;;;;;;;3.67;2.87;;;0.30;99.90;-0.40;101490.00;;;;4778672;29;92891;-68
2023/01/28 04:21:53;;;;;;;10.87;3.53;;;0.00;99.90;-0.40;101508.00;;;;4782142;29;93994;-69
2023/01/28 04:24:19;;;;;;;4.57;2.33;;;-0.10;99.90;-0.40;101502.00;;;;4779734;29;93527;-68
2023/01/28 04:26:45;;;;;;;7.03;2.70;;;-0.10;99.90;-0.50;101501.00;;;;4780731;29;92832;-70
2023/01/28 04:29:11;;;;;;;7.63;3.23;;;-0.10;99.90;-0.50;101497.00;;;;4778070;29;109468;-69
2023/01/28 04:31:36;;;;;;;4.10;3.13;;;-0.10;99.90;-0.50;101496.00;;;;4778896;29;122967;-69
2023/01/28 04:34:02;;;;;;;3.27;2.53;;;-0.10;99.90;-0.50;101501.00;;;;4777296;29;122730;-68
2023/01/28 04:36:28;;;;;;;6.73;3.50;;;-0.10;99.90;-0.60;101499.00;;;;4779551;29;110055;-69
2023/01/28 04:38:53;;;;;;;6.33;3.13;;;-0.20;99.90;-0.60;101506.00;;;;4779893;29;109030;-70
2023/01/28 04:41:19;;;;;;;4.73;3.30;;;-0.20;99.90;-0.60;101496.00;;;;4779236;29;122291;-69
2023/01/28 04:43:45;;;;;;;4.00;2.60;;;-0.20;99.90;-0.60;101510.00;;;;4779379;29;112863;-69
2023/01/28 04:46:11;;;;;;;8.20;3.83;;;-0.20;99.90;-0.60;101505.00;;;;4781274;29;93790;-69
2023/01/28 04:48:37;;;;;;;2.97;2.70;;;-0.30;99.90;-0.60;101512.00;;;;4782743;29;107032;-70
2023/01/28 04:51:03;;;;;;;5.70;3.27;;;-0.20;99.90;-0.70;101506.00;;;;4778877;29;93143;-69
2023/01/28 04:53:29;;;;;;;4.73;2.57;;;-0.30;99.90;-0.70;101504.00;;;;4780023;29;115096;-69
2023/01/28 04:55:56;;;;;;;3.57;2.87;;;-0.30;99.90;-0.70;101494.00;;;;4779607;29;95556;-70
2023/01/28 04:58:22;;;;;;;6.93;3.70;;;-0.30;99.90;-0.80;101499.00;;;;4779225;29;93085;-70
2023/01/28 05:00:56;;;;;;;4.10;2.80;;;-0.40;99.90;-0.80;101512.00;;;;4775735;29;109769;-71
2023/01/28 05:03:23;;;;;;;4.23;2.73;;;-0.30;99.90;-0.80;101500.00;;;;4793565;29;93165;-69
2023/01/28 05:05:49;;;;;;;4.27;2.63;;;-0.40;99.90;-0.80;101500.00;;;;4793153;29;92815;-69
2023/01/28 05:08:15;;;;;;;3.67;2.40;;;-0.40;99.90;-0.80;101506.00;;;;4778612;29;92888;-71
2023/01/28 05:10:40;;;;;;;5.07;2.80;;;-0.40;99.90;-0.80;101507.00;;;;4777378;29;124351;-69
2023/01/28 05:13:06;;;;;;;5.43;2.70;;;-0.30;99.90;-0.80;101513.00;;;;4778209;29;122434;-70
2023/01/28 05:15:31;;;;;;;5.73;3.30;;;-0.40;99.90;-0.80;101515.00;;;;4779244;29;109625;-70
2023/01/28 05:17:58;;;;;;;5.37;3.30;;;-0.40;99.90;-0.80;101512.00;;;;4779629;29;109488;-69
2023/01/28 05:20:24;;;;;;;7.30;3.30;;;0.40;99.90;-0.80;101513.00;;;;4779929;29;95092;-69
2023/01/28 05:22:50;;;;;;;2.83;2.27;;;-0.40;99.90;-0.80;101515.00;;;;4779326;29;114942;-70
2023/01/28 05:25:16;;;;;;;3.70;2.80;;;-0.50;99.90;-0.90;101521.00;;;;4779496;29;104643;-70
2023/01/28 05:27:41;;;;;;;3.10;2.40;;;0.20;99.90;-0.90;101525.00;;;;4779598;29;93834;-69
2023/01/28 05:30:08;;;;;;;4.10;2.53;;;-0.40;99.90;-0.90;101529.00;;;;4778348;29;122872;-68
2023/01/28 05:32:34;;;;;;;3.83;2.57;;;-0.50;99.90;-0.90;101540.00;;;;4777832;29;110603;-69
2023/01/28 05:35:00;;;;;;;5.83;2.03;;;-0.50;99.90;-1.00;101534.00;;;;4777810;29;110726;-70
2023/01/28 05:37:25;;;;;;;4.30;2.30;;;-1.30;99.90;-1.00;101534.00;;;;4774873;29;108219;-68
2023/01/28 05:39:51;;;;;;;3.10;2.53;;;-0.50;99.90;-1.00;101534.00;;;;4773296;29;123266;-68
2023/01/28 05:42:19;;;;;;;4.77;1.83;;;-0.60;99.90;-1.00;101546.00;;;;4777350;29;123162;-68
2023/01/28 05:44:45;;;;;;;3.47;2.33;;;-0.60;99.90;-1.10;101549.00;;;;4780388;29;93926;-70
2023/01/28 05:47:11;;;;;;;4.70;2.33;;;-0.60;99.90;-1.00;101550.00;;;;4776601;29;92846;-68
2023/01/28 05:49:36;;;;;;;3.00;2.27;;;-0.60;99.90;-1.00;101549.00;;;;4779210;29;104709;-69
2023/01/28 05:52:02;;;;;;;3.00;2.57;;;-0.70;99.90;-1.00;101560.00;;;;4773785;29;124766;-67
2023/01/28 05:54:28;;;;;;;3.73;3.13;;;-0.60;99.90;-1.00;101558.00;;;;4777764;29;109517;-68
2023/01/28 05:56:53;;;;;;;4.20;2.50;;;-0.70;99.90;-1.00;101562.00;;;;4782351;29;92809;-67
2023/01/28 05:59:19;;;;;;;4.97;2.70;;;-0.50;99.90;-0.90;101564.00;;;;4775601;29;123967;-69
2023/01/28 06:01:45;;;;;;;5.67;2.50;;;-0.60;99.90;-0.90;101568.00;;;;4780275;29;121338;-70
2023/01/28 06:04:10;;;;;;;3.33;2.33;;;-0.50;99.90;-0.90;101567.00;;;;4778854;29;109452;-69
2023/01/28 06:06:36;;;;;;;4.17;2.50;;;-0.50;99.90;-0.90;101578.00;;;;4777717;29;100187;-68
2023/01/28 06:09:02;;;;;;;4.87;2.53;;;-0.50;99.90;-0.90;101572.00;;;;4779353;29;124912;-69
2023/01/28 06:11:27;;;;;;;3.40;2.60;;;-0.20;99.90;-0.90;101570.00;;;;4780105;29;115450;-68
2023/01/28 06:13:53;;;;;;;8.10;3.03;;;-0.50;99.90;-0.90;101577.00;;;;4773793;29;103743;-70
2023/01/28 06:16:19;;;;;;;3.27;2.60;;;-0.50;99.90;-0.90;101578.00;;;;4781887;29;108832;-71
2023/01/28 06:18:44;;;;;;;2.87;2.60;;;-0.60;99.90;-0.90;101583.00;;;;4778929;29;120528;-70
2023/01/28 06:21:10;;;;;;;4.67;3.03;;;-0.50;99.90;-0.90;101586.00;;;;4782082;29;121842;-70
2023/01/28 06:23:36;;;;;;;3.67;2.93;;;-0.60;99.90;-0.90;101598.00;;;;4781401;29;110697;-70
2023/01/28 06:26:01;;;;;;;4.43;2.77;;;-0.50;99.90;-0.90;101593.00;;;;4781133;29;108117;-70
2023/01/28 06:28:27;;;;;;;2.50;2.30;;;-0.50;99.90;-0.90;101593.00;;;;4779981;29;123530;-70
2023/01/28 06:30:53;;;;;;;7.17;2.73;;;-0.60;99.90;-0.90;101588.00;;;;4781663;29;100917;-70
2023/01/28 06:33:21;;;;;;;6.10;2.83;;;-0.50;99.90;-0.80;101602.00;;;;4782568;29;93735;-70
2023/01/28 06:35:46;;;;;;;8.03;3.17;;;-0.50;99.90;-0.80;101608.00;;;;4785010;29;93017;-70
2023/01/28 06:38:13;;;;;;;2.97;2.67;;;-0.40;99.90;-0.80;101607.00;;;;4780623;29;123875;-71
2023/01/28 06:40:38;;;;;;;4.27;2.30;;;0.30;99.90;-0.80;101599.00;;;;4765625;29;94294;-70
2023/01/28 06:43:05;;;;;;;3.20;2.23;;;-0.40;99.90;-0.80;101603.00;;;;4779605;29;110794;-70
2023/01/28 06:45:32;;;;;;;3.63;2.80;;;-0.40;99.90;-0.80;101600.00;;;;4781520;29;92878;-70
2023/01/28 06:47:58;;;;;;;3.80;2.20;;;-0.50;99.90;-0.80;101613.00;;;;4781808;29;93032;-70
2023/01/28 06:50:24;;;;;;;3.00;2.20;;;-1.40;99.90;-0.80;101616.00;;;;4781612;29;124132;-70
2023/01/28 06:52:49;;;;;;;3.83;2.33;;;-0.40;99.90;-0.80;101622.00;;;;4783524;29;99404;-70
2023/01/28 06:55:15;;;;;;;2.63;2.07;;;-0.50;99.90;-0.80;101623.00;;;;4781709;29;109567;-70
2023/01/28 06:57:41;;;;;;;3.93;2.87;;;-0.40;99.90;-0.70;101620.00;;;;4775935;29;120451;-70
2023/01/28 07:00:11;;;;;;;3.43;2.90;;;-0.40;99.90;-0.70;101621.00;;;;4779789;29;94187;-70
2023/01/28 07:02:37;;;;;;;3.97;3.10;;;-0.40;99.90;-0.70;101620.00;;;;4780754;29;93080;-69
2023/01/28 07:05:04;;;;;;;3.07;2.30;;;-0.30;99.90;-0.70;101626.00;;;;4793702;29;93160;-70
2023/01/28 07:07:30;;;;;;;7.47;3.13;;;-0.40;99.90;-0.70;101632.00;;;;4776940;29;93143;-70
2023/01/28 07:09:56;;;;;;;5.57;3.53;;;-0.30;99.90;-0.70;101617.00;;;;4778949;29;120709;-70
2023/01/28 07:12:21;;;;;;;3.33;2.87;;;-0.30;99.90;-0.70;101619.00;;;;4778860;29;110256;-69
2023/01/28 07:14:47;;;;;;;5.27;3.03;;;-0.30;99.90;-0.70;101629.00;;;;4780004;29;108798;-70
2023/01/28 07:17:12;;;;;;;3.80;2.70;;;-0.30;99.90;-0.70;101624.00;;;;4775154;29;123000;-70
2023/01/28 07:19:38;;;;;;;6.63;2.90;;;-0.30;99.90;-0.60;101627.00;;;;4777898;29;122435;-70
2023/01/28 07:22:04;;;;;;;5.13;4.03;;;-0.30;99.90;-0.60;101617.00;;;;4779757;29;108865;-69
2023/01/28 07:24:30;;;;;;;5.87;3.73;;;-0.30;99.90;-0.60;101625.00;;;;4779519;29;107300;-67
2023/01/28 07:26:55;;;;;;;5.43;3.97;;;-0.20;99.90;-0.60;101630.00;;;;4780062;29;124660;-69
2023/01/28 07:29:21;;;;;;;8.50;5.77;;;-0.20;99.90;-0.60;101625.00;;;;4792312;29;123508;-70
2023/01/28 07:31:47;;;;;;;6.20;3.83;;;-0.20;99.90;-0.60;101627.00;;;;4779115;29;108920;-70
2023/01/28 07:34:13;;;;;;;4.13;2.47;;;-0.10;99.90;-0.50;101631.00;;;;4777576;29;95178;-70
2023/01/28 07:36:38;;;;;;;2.90;2.63;;;-0.20;99.90;-0.50;101627.00;;;;4786094;29;122570;-70
2023/01/28 07:39:06;;;;;;;5.93;3.20;;;-0.10;99.90;-0.50;101630.00;;;;4779348;29;122060;-70
2023/01/28 07:41:32;;;;;;;4.70;2.77;;;-0.20;99.90;-0.40;101635.00;;;;4781132;29;92843;-70
2023/01/28 07:43:57;;;;;;;6.57;3.03;;;-0.10;99.90;-0.40;101627.00;;;;4780789;29;109434;-70
2023/01/28 07:46:23;;;;;;;6.53;3.47;;;0.00;99.90;-0.40;101615.00;;;;4782484;29;122539;-70
2023/01/28 07:48:49;;;;;;;6.77;3.00;;;0.00;99.90;-0.40;101617.00;;;;4773977;29;114441;-70
2023/01/28 07:51:14;;;;;;;3.00;2.57;;;0.00;99.90;-0.30;101621.00;;;;4777119;29;110556;-70
2023/01/28 07:53:40;;;;;;;3.30;2.17;;;0.00;99.90;-0.30;101625.00;;;;4777543;29;109681;-70
2023/01/28 07:56:06;;;;;;;3.00;2.50;;;0.10;99.90;-0.30;101635.00;;;;4776793;29;120694;-70
2023/01/28 07:58:33;;;;;;;8.20;2.47;;;0.10;99.90;-0.20;101624.00;;;;4775536;29;111992;-70
2023/01/28 08:01:00;;;;;;;2.73;2.47;;;0.50;99.90;-0.20;101629.00;;;;4778330;29;92909;-70
2023/01/28 08:03:27;;;;;;;3.80;1.73;;;0.10;99.90;-0.20;101640.00;;;;4788454;29;92210;-69
2023/01/28 08:05:55;;;;;;;3.10;2.23;;;0.20;99.90;-0.20;101628.00;;;;4790800;29;93043;-68
2023/01/28 08:08:26;;;;;;;1.53;1.20;;;1.30;99.90;-0.20;101635.00;;;;4778192;29;93254;-69
2023/01/28 08:10:52;;;;;;;1.93;1.73;;;0.20;99.90;-0.20;101630.00;;;;4777329;29;94174;-68
2023/01/28 08:13:18;;;;;;;1.70;1.60;;;0.20;99.90;-0.10;101630.00;;;;4777069;29;92917;-68
2023/01/28 08:15:45;;;;;;;3.97;1.60;;;0.20;99.90;-0.10;101641.00;;;;4775683;29;93740;-68
2023/01/28 08:18:13;;;;;;;1.83;1.50;;;0.30;99.90;-0.10;101633.00;;;;4776169;29;109312;-70
2023/01/28 08:20:40;;;;;;;5.40;2.80;;;0.30;99.90;-0.10;101633.00;;;;4776912;29;92812;-70
2023/01/28 08:23:18;;;;;;;6.00;3.57;;;0.30;99.90;-0.10;101638.00;;;;4778241;29;92851;-69
2023/01/28 08:25:45;;;;;;;4.27;2.70;;;0.30;99.90;0.00;101640.00;;;;4789536;29;93035;-70
2023/01/28 08:28:12;;;;;;;6.03;3.33;;;0.30;99.90;0.00;101645.00;;;;4774694;29;107250;-68
2023/01/28 08:30:38;;;;;;;4.77;2.57;;;0.40;99.90;0.00;101636.00;;;;4774691;29;101215;-69
2023/01/28 08:33:06;;;;;;;2.07;1.30;;;0.60;99.90;0.00;101640.00;;;;4776936;29;92966;-68
2023/01/28 08:35:33;;;;;;;3.63;2.03;;;-0.50;99.90;0.00;101642.00;;;;4777999;29;109464;-68
2023/01/28 08:38:00;;;;;;;2.30;1.90;;;0.40;99.90;0.00;101649.00;;;;4775799;29;93326;-68
2023/01/28 08:40:26;;;;;;;1.50;1.40;;;0.30;99.90;0.00;101645.00;;;;4777757;29;92871;-68
2023/01/28 08:42:53;;;;;;;19.77;17.67;;;0.30;99.90;0.00;101657.00;;;;4777652;29;93189;-68
2023/01/28 08:45:21;;;;;;;7.63;5.63;;;0.30;99.90;-0.10;101645.00;;;;4755976;29;108414;-67
2023/01/28 08:48:02;;;;;;;5.93;4.17;;;0.20;99.90;-0.10;101646.00;;;;4777922;29;93020;-69
2023/01/28 08:50:37;;;;;;;13.93;6.83;;;0.30;99.90;0.00;101649.00;;;;4778053;29;93090;-70
2023/01/28 08:53:15;;;;;;;4.73;2.00;;;0.30;99.90;0.00;101648.00;;;;4779842;29;92198;-70
2023/01/28 08:55:41;;;;;;;4.27;3.13;;;0.30;99.90;0.00;101645.00;;;;4778301;29;95903;-68
2023/01/28 08:58:12;;;;;;;2.30;1.83;;;0.40;99.90;0.00;101660.00;;;;4774293;29;123426;-71
2023/01/28 09:00:37;;;;;;;2.53;1.97;;;0.40;99.90;0.10;101670.00;;;;4773262;29;95775;-68
2023/01/28 09:03:04;;;;;;;3.87;2.53;;;0.40;99.90;0.00;101670.00;;;;4775730;29;107053;-68
2023/01/28 09:05:31;;;;;;;35.10;23.17;;;0.50;99.90;0.00;101652.00;;;;4776549;29;93936;-68
2023/01/28 09:08:02;;;;;;;5.37;4.13;;;0.30;99.90;0.10;101659.00;;;;4775403;29;93939;-68
2023/01/28 09:10:27;;;;;;;3.57;2.47;;;0.40;99.90;0.10;101661.00;;;;4778950;29;94025;-68
2023/01/28 09:12:53;;;;;;;7.93;6.70;;;0.40;99.90;0.10;101662.00;;;;4778503;29;109097;-68
2023/01/28 09:15:19;;;;;;;6.40;5.83;;;0.40;99.90;0.10;101658.00;;;;4777182;29;93460;-70
2023/01/28 09:17:44;;;;;;;2.30;2.10;;;0.40;99.90;0.10;101667.00;;;;4777736;29;122070;-69
2023/01/28 09:20:11;;;;;;;2.50;2.30;;;0.40;99.90;0.10;101673.00;;;;4776748;29;110892;-69
2023/01/28 09:22:37;;;;;;;2.10;1.53;;;1.20;99.90;0.20;101669.00;;;;4776172;29;92860;-69
2023/01/28 09:25:03;;;;;;;1.63;1.30;;;0.50;99.90;0.20;101669.00;;;;4770216;29;117568;-70
2023/01/28 09:27:29;;;;;;;2.43;2.23;;;0.40;99.90;0.20;101669.00;;;;4773356;29;94459;-68
2023/01/28 09:29:54;;;;;;;2.13;1.70;;;0.50;99.90;0.20;101680.00;;;;4776210;29;111116;-68
2023/01/28 09:32:20;;;;;;;3.47;1.60;;;0.50;99.90;0.20;101675.00;;;;4777252;29;108687;-68
2023/01/28 09:34:46;;;;;;;2.10;1.80;;;0.50;99.90;0.30;101685.00;;;;4778963;29;117313;-69
2023/01/28 09:37:11;;;;;;;2.30;1.20;;;0.60;99.90;0.30;101663.00;;;;4777472;29;123415;-69
2023/01/28 09:39:37;;;;;;;1.30;1.20;;;0.50;99.90;0.40;101675.00;;;;4778573;29;93018;-69
2023/01/28 09:42:37;;;;;;;2.73;1.80;;;0.60;99.90;0.40;101670.00;;;;4776305;29;105705;-69
2023/01/28 09:45:21;;;;;;;3.63;1.90;;;0.70;99.90;0.40;101667.00;;;;4775572;29;114010;-70
2023/01/28 09:48:01;;;;;;;2.47;1.80;;;0.70;99.90;0.40;101674.00;;;;4775453;29;114420;-72
2023/01/28 09:50:37;;;;;;;3.70;1.60;;;0.90;99.90;0.40;101682.00;;;;4777381;29;94150;-69
2023/01/28 09:53:28;;;;;;;2.03;1.73;;;0.70;99.90;0.40;101687.00;;;;4776803;29;93251;-70
2023/01/28 09:56:02;;;;;;;1.27;1.17;;;0.80;99.90;0.40;101695.00;;;;4777217;29;97909;-67
2023/01/28 09:58:28;;;;;;;1.97;1.30;;;0.80;99.90;0.40;101686.00;;;;4776015;29;93149;-68
2023/01/28 10:01:26;;;;;;;2.37;1.80;;;0.80;99.90;0.50;101686.00;;;;4776186;29;111072;-69
2023/01/28 10:04:28;;;;;;;32.90;18.17;;;0.90;99.90;0.50;101701.00;;;;4777053;29;92925;-68
2023/01/28 10:07:23;;;;;;;2.60;2.37;;;0.90;99.90;0.50;101705.00;;;;4776187;29;112104;-69
2023/01/28 10:10:15;;;;;;;2.07;1.87;;;0.70;99.90;0.50;101688.00;;;;4777803;29;95142;-71
2023/01/28 10:13:06;;;;;;;1.40;1.30;;;0.90;99.90;0.50;101696.00;;;;4775302;29;93201;-68
2023/01/28 10:16:30;;;;;;;2.20;1.73;;;0.80;99.90;0.50;101713.00;;;;4777342;29;92939;-69
2023/01/28 10:19:05;;;;;;;2.30;1.57;;;1.60;99.90;0.60;101714.00;;;;4766711;29;102869;-69
2023/01/28 10:21:44;;;;;;;4.27;1.40;;;0.90;99.90;0.60;101706.00;;;;4779377;29;109621;-68
2023/01/28 10:24:30;;;;;;;3.33;1.10;;;0.90;99.90;0.60;101706.00;;;;4776912;29;103137;-69
2023/01/28 10:26:57;;;;;;;2.37;1.23;;;1.00;99.90;0.60;101712.00;;;;4791091;29;93026;-68
2023/01/28 10:29:30;;;;;;;2.43;1.63;;;1.30;99.90;0.50;101700.00;;;;4788476;29;124130;-68
2023/01/28 10:32:16;;;;;;;1.47;1.37;;;0.90;99.90;0.50;101714.00;;;;4775796;29;115542;-69
2023/01/28 10:34:42;;;;;;;5.87;5.33;;;0.90;99.90;0.50;101711.00;;;;4773800;29;103860;-70
2023/01/28 10:37:15;;;;;;;3.40;2.33;;;0.80;99.90;0.50;101717.00;;;;4758031;29;108368;-69
2023/01/28 10:39:41;;;;;;;2.63;1.73;;;0.90;99.90;0.60;101719.00;;;;4787480;29;123516;-69
2023/01/28 10:42:30;;;;;;;2.23;1.90;;;0.90;99.90;0.50;101706.00;;;;4791612;29;99486;-67
2023/01/28 10:46:03;;;;;;;12.67;8.17;;;0.90;99.90;0.50;101706.00;;;;4773708;29;100702;-69
2023/01/28 10:48:34;;;;;;;3.87;3.27;;;0.90;99.90;0.50;101708.00;;;;4774495;29;92917;-68
2023/01/28 10:51:04;;;;;;;1.73;1.33;;;0.90;99.90;0.60;101709.00;;;;4775895;29;93381;-68
2023/01/28 10:53:39;;;;;;;1.37;1.20;;;0.80;99.90;0.60;101702.00;;;;4775205;29;93547;-68
2023/01/28 10:56:26;;;;;;;3.50;3.13;;;0.90;99.90;0.60;101704.00;;;;4788316;29;92927;-68
2023/01/28 10:59:05;;;;;;;2.97;1.13;;;1.10;99.90;0.60;101704.00;;;;4790201;29;93039;-68
2023/01/28 11:01:45;;;;;;;1.07;0.73;;;0.90;99.90;0.60;101718.00;;;;4794393;29;93173;-68
2023/01/28 11:04:19;;;;;;;2.53;1.20;;;0.90;99.90;0.70;101714.00;;;;4776679;29;92883;-70
2023/01/28 11:06:53;;;;;;;1.20;0.83;;;0.90;99.90;0.60;101708.00;;;;4792615;29;93041;-69
2023/01/28 11:09:25;;;;;;;4.07;2.30;;;1.00;99.90;0.60;101706.00;;;;4778209;29;93779;-68
2023/01/28 11:11:51;;;;;;;1.23;1.13;;;0.90;99.90;0.60;101706.00;;;;4775577;29;95044;-67
2023/01/28 11:14:26;;;;;;;3.20;1.50;;;0.90;99.90;0.70;101706.00;;;;4791689;29;108847;-68
2023/01/28 11:16:55;;;;;;;1.40;1.30;;;1.00;99.90;0.70;101704.00;;;;4779410;29;92715;-69
2023/01/28 11:19:30;;;;;;;2.47;2.27;;;0.80;99.90;0.70;101703.00;;;;4790845;29;100713;-68
2023/01/28 11:21:56;;;;;;;2.63;1.57;;;1.00;99.90;0.70;101698.00;;;;4780191;29;114950;-68
2023/01/28 11:24:30;;;;;;;4.23;3.20;;;1.00;99.90;0.70;101706.00;;;;4779053;29;93059;-69
2023/01/28 11:26:58;;;;;;;2.83;2.00;;;1.00;99.90;0.70;101697.00;;;;4783166;29;93057;-69
2023/01/28 11:29:31;;;;;;;1.00;1.00;;;1.10;99.90;0.80;101700.00;;;;4779981;29;98435;-69
2023/01/28 11:31:59;;;;;;;1.03;1.03;;;1.10;99.90;0.80;101685.00;;;;4779984;29;94470;-68
2023/01/28 11:34:28;;;;;;;0.83;0.83;;;1.00;99.90;0.80;101693.00;;;;4777868;29;92991;-68
2023/01/28 11:37:15;;;;;;;9.33;4.30;;;1.10;99.90;0.80;101691.00;;;;4779090;29;94528;-68
2023/01/28 11:39:41;;;;;;;2.33;1.60;;;1.20;99.90;0.80;101689.00;;;;4777833;29;93286;-69